Time;durP1;ratioP1;P1;durP2;ratioP2;P2;SDS_P1;SDS_P2;PMS_P1;PMS_P2;Temp;Humidity;BMP_temperature;BMP_pressure;BME280_temperature;BME280_humidity;BME280_pressure;Samples;Min_cycle;Max_cycle;Signal;HPM_P1;HPM_P2
2022/04/26 03:36:11;;;;;;;50.53;31.25;;;11.40;66.20;;;;;;4986155;28;20069;-45
2022/04/26 03:38:41;;;;;;;55.72;33.80;;;11.50;66.30;;;;;;4978855;28;20061;-44
2022/04/26 03:41:09;;;;;;;50.10;29.67;;;11.50;66.20;;;;;;4980413;28;20422;-45
2022/04/26 03:43:37;;;;;;;49.75;29.77;;;11.50;66.20;;;;;;4977495;28;20061;-47
2022/04/26 03:46:05;;;;;;;46.05;28.27;;;11.50;66.00;;;;;;4980145;28;20059;-45
2022/04/26 03:48:32;;;;;;;45.15;26.95;;;11.50;65.90;;;;;;4980508;28;21207;-44
2022/04/26 03:51:01;;;;;;;46.20;29.05;;;11.60;65.90;;;;;;4980447;28;20065;-44
2022/04/26 03:53:29;;;;;;;49.97;30.90;;;11.50;65.90;;;;;;4978699;28;20058;-45
2022/04/26 03:55:56;;;;;;;48.50;29.73;;;11.50;65.70;;;;;;4979799;28;20426;-44
2022/04/26 03:58:25;;;;;;;47.15;30.73;;;11.50;65.70;;;;;;4978549;28;20057;-48
2022/04/26 04:00:52;;;;;;;53.38;32.20;;;11.50;65.70;;;;;;4978490;28;20059;-46
2022/04/26 04:03:20;;;;;;;54.00;32.28;;;11.50;65.80;;;;;;4977819;28;20057;-45
2022/04/26 04:05:47;;;;;;;73.65;32.08;;;11.40;65.70;;;;;;4981831;28;20055;-45
2022/04/26 04:08:16;;;;;;;53.25;31.17;;;11.40;65.60;;;;;;4980479;28;20375;-44
2022/04/26 04:10:43;;;;;;;50.55;30.77;;;11.40;65.60;;;;;;4982144;28;20181;-44
2022/04/26 04:13:11;;;;;;;42.45;26.55;;;11.40;65.60;;;;;;4978220;28;20065;-44
2022/04/26 04:15:39;;;;;;;43.38;27.70;;;11.40;65.50;;;;;;4976921;28;20066;-45
2022/04/26 04:19:17;;;;;;;46.80;28.17;;;11.40;65.40;;;;;;4969254;28;20050;-44
2022/04/26 04:20:55;;;;;;;47.85;29.15;;;11.40;65.30;;;;;;4982341;28;20063;-45
2022/04/26 04:23:24;;;;;;;57.78;32.40;;;11.40;65.20;;;;;;4981311;28;20050;-45
2022/04/26 04:25:51;;;;;;;50.15;30.02;;;11.50;65.30;;;;;;4985133;28;20422;-46
2022/04/26 04:28:19;;;;;;;42.63;27.05;;;11.50;65.20;;;;;;4983599;28;20050;-45
2022/04/26 04:30:46;;;;;;;44.30;28.02;;;11.40;65.20;;;;;;4984236;28;20054;-45
2022/04/26 04:33:13;;;;;;;46.05;27.63;;;11.50;65.30;;;;;;4977977;28;20054;-44
2022/04/26 04:35:41;;;;;;;49.85;30.88;;;11.50;65.30;;;;;;4978980;28;20525;-44
2022/04/26 04:38:09;;;;;;;45.08;28.85;;;11.50;65.30;;;;;;4980021;28;20046;-44
2022/04/26 04:40:38;;;;;;;45.13;28.40;;;11.50;65.30;;;;;;4985441;28;20376;-44
2022/04/26 04:43:05;;;;;;;39.97;25.38;;;11.60;65.30;;;;;;4980549;28;20057;-46
2022/04/26 04:45:33;;;;;;;45.35;27.85;;;11.60;65.20;;;;;;4983134;28;20050;-44
2022/04/26 04:48:00;;;;;;;45.67;27.75;;;11.60;65.10;;;;;;4980760;28;20414;-44
2022/04/26 04:50:28;;;;;;;42.97;27.70;;;11.60;65.00;;;;;;4983184;28;20430;-44
2022/04/26 04:52:56;;;;;;;48.08;29.23;;;11.70;65.10;;;;;;4981684;28;20058;-45
2022/04/26 04:55:23;;;;;;;48.00;28.98;;;11.70;65.10;;;;;;4981471;28;20483;-44
2022/04/26 04:57:52;;;;;;;43.95;27.45;;;11.70;65.20;;;;;;4981704;28;20057;-44
2022/04/26 05:00:20;;;;;;;43.60;27.10;;;11.70;65.30;;;;;;4982404;28;20050;-47
2022/04/26 05:02:48;;;;;;;46.65;28.33;;;11.60;66.00;;;;;;4982373;28;20053;-45
2022/04/26 05:05:16;;;;;;;44.72;27.00;;;11.70;65.40;;;;;;4982118;28;20065;-45
2022/04/26 05:07:43;;;;;;;49.40;29.00;;;11.70;65.50;;;;;;4983856;28;20506;-44
2022/04/26 05:10:11;;;;;;;53.42;31.63;;;11.70;65.50;;;;;;4984969;28;20066;-44
2022/04/26 05:12:39;;;;;;;54.15;32.13;;;11.60;65.50;;;;;;4982731;28;20054;-49
2022/04/26 05:15:09;;;;;;;53.15;30.95;;;11.70;65.50;;;;;;4982694;28;20058;-44
2022/04/26 05:17:36;;;;;;;44.78;27.30;;;11.70;65.50;;;;;;4982789;28;20054;-46
2022/04/26 05:20:08;;;;;;;45.85;27.90;;;11.70;65.60;;;;;;4979680;28;20054;-44
2022/04/26 05:24:53;;;;;;;51.28;30.13;;;11.70;65.80;;;;;;4981814;28;20062;-44
2022/04/26 05:25:22;;;;;;;46.08;27.80;;;11.70;65.90;;;;;;4981982;28;20502;-46
2022/04/26 05:27:50;;;;;;;42.83;27.25;;;11.80;65.90;;;;;;4982031;28;20057;-45
2022/04/26 05:30:19;;;;;;;38.67;24.30;;;11.80;66.00;;;;;;4983427;28;21222;-44
2022/04/26 05:32:47;;;;;;;48.00;29.00;;;11.90;66.10;;;;;;4982011;28;20055;-47
2022/04/26 05:35:14;;;;;;;47.50;28.52;;;11.90;65.90;;;;;;4982173;28;20414;-44
2022/04/26 05:37:42;;;;;;;48.88;28.83;;;12.00;65.90;;;;;;4978983;28;21003;-47
2022/04/26 05:40:10;;;;;;;35.45;22.05;;;12.00;65.80;;;;;;4982273;28;20058;-44
2022/04/26 05:42:39;;;;;;;34.60;21.90;;;12.00;65.70;;;;;;4976965;28;20058;-46
2022/04/26 05:45:07;;;;;;;32.88;20.55;;;12.00;65.70;;;;;;4980581;28;20061;-45
2022/04/26 05:47:41;;;;;;;36.00;22.20;;;12.00;65.70;;;;;;4983824;28;20062;-46
2022/04/26 05:50:10;;;;;;;39.70;24.08;;;12.00;65.90;;;;;;4982603;28;20054;-44
2022/04/26 05:52:37;;;;;;;42.72;24.80;;;12.00;65.80;;;;;;4980423;28;20494;-45
2022/04/26 05:55:07;;;;;;;39.15;24.38;;;12.00;66.00;;;;;;4977740;28;20058;-45
2022/04/26 05:57:38;;;;;;;35.55;23.42;;;12.00;66.20;;;;;;4981921;28;20054;-45
2022/04/26 06:00:08;;;;;;;30.50;21.02;;;12.00;66.40;;;;;;4982527;28;20062;-46
2022/04/26 06:02:36;;;;;;;29.50;19.52;;;12.00;66.40;;;;;;4980588;28;20054;-44
2022/04/26 06:05:04;;;;;;;32.42;20.10;;;12.00;66.50;;;;;;4981449;28;20061;-44
2022/04/26 06:07:32;;;;;;;36.17;22.30;;;12.10;66.70;;;;;;4981175;28;20062;-44
2022/04/26 06:10:01;;;;;;;36.78;21.52;;;12.10;66.70;;;;;;4982863;28;20065;-44
2022/04/26 06:12:28;;;;;;;32.97;20.95;;;12.20;66.80;;;;;;4981098;28;20058;-45
2022/04/26 06:14:56;;;;;;;36.35;22.02;;;12.20;66.60;;;;;;4979418;28;20062;-44
2022/04/26 06:17:24;;;;;;;34.28;22.25;;;12.30;66.50;;;;;;4982394;28;20058;-45
2022/04/26 06:19:53;;;;;;;34.83;22.70;;;12.30;66.50;;;;;;4982905;28;20058;-44
2022/04/26 06:22:20;;;;;;;34.50;22.38;;;12.30;66.50;;;;;;4970923;28;20073;-44
2022/04/26 06:24:49;;;;;;;33.20;20.45;;;12.30;66.70;;;;;;4981948;28;20782;-46
2022/04/26 06:27:16;;;;;;;32.38;21.10;;;12.30;66.90;;;;;;4979699;28;20530;-44
2022/04/26 06:29:44;;;;;;;32.42;21.40;;;12.30;66.80;;;;;;4980887;28;20063;-44
2022/04/26 06:32:12;;;;;;;30.48;20.80;;;12.20;67.10;;;;;;4981023;28;20054;-44
2022/04/26 06:34:39;;;;;;;28.30;20.23;;;12.30;67.30;;;;;;4980971;28;20054;-45
2022/04/26 06:37:08;;;;;;;32.15;20.38;;;12.20;67.00;;;;;;4980189;28;20057;-46
2022/04/26 06:39:36;;;;;;;29.13;19.55;;;12.20;67.20;;;;;;4982168;28;20058;-44
2022/04/26 06:42:04;;;;;;;28.48;19.15;;;12.20;67.60;;;;;;4978091;28;20058;-44
2022/04/26 06:44:31;;;;;;;25.38;18.77;;;12.30;67.80;;;;;;4979460;28;20046;-44
2022/04/26 06:46:59;;;;;;;25.70;17.80;;;12.30;67.30;;;;;;4982092;28;20054;-44
2022/04/26 06:49:26;;;;;;;25.90;17.98;;;12.40;67.40;;;;;;4980779;28;20058;-44
2022/04/26 06:51:54;;;;;;;23.67;16.63;;;12.40;67.50;;;;;;4978747;28;20520;-47
2022/04/26 06:54:22;;;;;;;22.40;15.82;;;12.50;68.00;;;;;;4980764;28;20050;-45
2022/04/26 06:56:50;;;;;;;23.10;17.50;;;12.60;67.10;;;;;;4979878;28;20064;-44
2022/04/26 06:59:18;;;;;;;22.02;15.75;;;12.70;67.20;;;;;;4981000;28;20490;-44
2022/04/26 07:01:52;;;;;;;23.75;17.70;;;12.70;67.10;;;;;;4973960;28;20532;-45
2022/04/26 07:04:20;;;;;;;22.80;16.20;;;12.80;65.30;;;;;;4979093;28;20505;-44
2022/04/26 07:06:48;;;;;;;24.80;17.35;;;12.80;64.60;;;;;;4981502;28;20065;-44
2022/04/26 07:09:16;;;;;;;22.17;16.75;;;12.80;64.60;;;;;;4979722;28;20061;-44
2022/04/26 07:11:46;;;;;;;22.40;15.63;;;12.80;64.80;;;;;;4977733;28;20065;-44
2022/04/26 07:14:13;;;;;;;17.27;13.50;;;12.80;65.10;;;;;;4980963;28;20054;-44
2022/04/26 07:16:41;;;;;;;14.73;12.30;;;12.80;65.10;;;;;;4979359;28;20410;-44
2022/04/26 07:19:08;;;;;;;16.40;12.23;;;12.80;64.00;;;;;;4980554;28;20062;-44
2022/04/26 07:21:36;;;;;;;12.73;9.60;;;12.70;63.70;;;;;;4978331;28;20051;-46
2022/04/26 07:24:04;;;;;;;15.32;10.73;;;12.70;63.70;;;;;;4978994;28;20050;-45
2022/04/26 07:26:32;;;;;;;14.43;11.43;;;12.60;63.80;;;;;;4976945;28;20061;-48
2022/04/26 07:29:01;;;;;;;13.18;10.40;;;12.60;64.20;;;;;;4977573;28;20054;-44
2022/04/26 07:31:29;;;;;;;14.50;9.70;;;12.60;64.50;;;;;;4978494;28;20061;-46
2022/04/26 07:36:42;;;;;;;14.23;9.68;;;12.60;63.90;;;;;;4987309;28;20056;-45
2022/04/26 07:39:09;;;;;;;14.73;10.25;;;12.60;63.90;;;;;;4980561;28;20058;-44
2022/04/26 07:41:37;;;;;;;10.63;8.77;;;12.70;64.00;;;;;;4976790;28;20062;-44
2022/04/26 07:44:06;;;;;;;14.02;9.80;;;12.70;63.90;;;;;;4981343;28;20053;-46
2022/04/26 07:46:33;;;;;;;13.00;9.73;;;12.60;63.80;;;;;;4979378;28;20062;-46
2022/04/26 07:49:01;;;;;;;11.18;9.10;;;12.70;63.90;;;;;;4973882;28;20050;-44
2022/04/26 07:51:28;;;;;;;12.95;9.23;;;12.70;64.00;;;;;;4975560;28;20069;-45
2022/04/26 07:53:56;;;;;;;17.20;9.63;;;12.70;63.70;;;;;;4976102;28;20050;-44
2022/04/26 07:56:23;;;;;;;11.70;8.65;;;12.70;64.20;;;;;;4983651;28;20729;-45
2022/04/26 07:58:52;;;;;;;11.13;8.65;;;12.70;63.80;;;;;;4983711;28;20055;-44
2022/04/26 08:01:21;;;;;;;13.57;9.27;;;12.80;64.10;;;;;;4982098;28;20050;-44
2022/04/26 08:03:49;;;;;;;9.55;7.95;;;12.80;64.20;;;;;;4983521;28;20054;-47
2022/04/26 08:06:16;;;;;;;11.57;8.80;;;12.90;64.30;;;;;;4985656;28;20057;-46
2022/04/26 08:08:44;;;;;;;9.73;7.07;;;13.00;64.30;;;;;;4985424;28;20062;-46
2022/04/26 08:11:13;;;;;;;10.13;6.90;;;13.10;63.70;;;;;;4984462;28;20502;-45
2022/04/26 08:13:41;;;;;;;8.63;7.13;;;13.20;62.00;;;;;;4984044;28;20057;-46
2022/04/26 08:16:08;;;;;;;8.60;6.55;;;13.20;61.40;;;;;;4984727;28;20073;-44
2022/04/26 08:18:37;;;;;;;8.07;6.55;;;13.20;60.80;;;;;;4984516;28;20054;-44
2022/04/26 08:21:07;;;;;;;10.30;7.20;;;13.20;61.10;;;;;;4984963;28;20506;-44
2022/04/26 08:27:22;;;;;;;9.82;7.50;;;13.20;61.00;;;;;;4984512;28;20054;-44
2022/04/26 08:29:07;;;;;;;11.02;8.45;;;13.20;61.30;;;;;;4991001;28;20077;-45
2022/04/26 08:31:35;;;;;;;9.27;7.50;;;13.30;61.60;;;;;;4982666;28;20085;-44
2022/04/26 08:34:04;;;;;;;10.38;7.78;;;13.30;61.40;;;;;;4984134;28;20062;-45
2022/04/26 08:36:32;;;;;;;7.32;6.32;;;13.30;62.00;;;;;;4984982;28;20058;-46
2022/04/26 08:39:00;;;;;;;7.97;6.38;;;13.20;61.10;;;;;;4984913;28;20061;-46
2022/04/26 08:41:29;;;;;;;12.43;6.97;;;13.30;61.50;;;;;;4984897;28;20046;-44
2022/04/26 08:43:56;;;;;;;9.77;7.65;;;13.40;61.80;;;;;;4984636;28;20058;-44
2022/04/26 08:50:59;;;;;;;10.10;7.80;;;13.40;62.00;;;;;;4984854;28;20498;-47
2022/04/26 08:52:02;;;;;;;7.40;6.18;;;13.50;61.80;;;;;;4988624;28;20422;-44
2022/04/26 08:54:31;;;;;;;8.88;6.75;;;13.60;61.10;;;;;;4982533;28;21055;-44
2022/04/26 08:56:59;;;;;;;9.93;6.45;;;13.60;61.30;;;;;;4984807;28;20050;-44
2022/04/26 08:59:26;;;;;;;10.48;7.30;;;13.70;61.60;;;;;;4983613;28;20058;-44
2022/04/26 09:02:15;;;;;;;8.18;6.68;;;13.80;60.90;;;;;;4980020;28;20046;-44
2022/04/26 09:04:45;;;;;;;7.47;5.57;;;13.90;61.00;;;;;;4980724;28;20757;-45
2022/04/26 09:07:13;;;;;;;9.10;5.57;;;14.00;60.60;;;;;;4978466;28;20057;-44
2022/04/26 09:09:41;;;;;;;6.78;5.28;;;14.10;60.00;;;;;;4982833;28;20069;-44
2022/04/26 09:12:12;;;;;;;5.88;4.95;;;14.20;59.60;;;;;;4979190;28;20046;-44
2022/04/26 09:14:47;;;;;;;5.28;4.10;;;14.30;59.40;;;;;;4982315;28;20729;-44
2022/04/26 09:17:17;;;;;;;9.13;5.90;;;14.50;59.50;;;;;;4981019;28;20065;-49
2022/04/26 09:19:48;;;;;;;9.90;6.40;;;14.60;58.60;;;;;;4982780;28;20066;-45
2022/04/26 09:22:17;;;;;;;7.03;5.55;;;14.60;58.20;;;;;;4980982;28;20062;-44
2022/04/26 09:24:55;;;;;;;7.78;5.32;;;14.60;57.50;;;;;;4982041;28;20057;-49
2022/04/26 09:27:23;;;;;;;8.52;6.15;;;14.70;56.90;;;;;;4982680;28;20051;-44
2022/04/26 09:29:50;;;;;;;8.38;6.55;;;14.70;57.40;;;;;;4981826;28;21981;-48
2022/04/26 09:32:18;;;;;;;10.20;6.57;;;14.70;56.90;;;;;;4978532;28;20054;-44
2022/04/26 09:34:47;;;;;;;25.80;17.35;;;14.70;57.00;;;;;;4981100;28;20058;-45
2022/04/26 09:37:16;;;;;;;30.08;18.95;;;14.70;58.10;;;;;;4982519;28;20054;-45
2022/04/26 09:40:02;;;;;;;29.52;19.52;;;14.70;58.50;;;;;;4983496;28;20061;-45
2022/04/26 09:42:31;;;;;;;33.88;22.02;;;14.80;58.90;;;;;;4983212;28;20058;-44
2022/04/26 09:45:06;;;;;;;29.65;19.13;;;14.80;58.90;;;;;;4982259;28;20122;-45
2022/04/26 09:47:37;;;;;;;29.67;18.95;;;14.80;58.50;;;;;;4981906;28;20062;-46
2022/04/26 09:50:11;;;;;;;35.50;19.33;;;14.80;58.00;;;;;;4982436;28;20054;-44
2022/04/26 09:52:38;;;;;;;31.67;21.40;;;14.70;58.00;;;;;;4982414;28;20055;-44
2022/04/26 09:55:08;;;;;;;35.35;22.23;;;14.70;58.30;;;;;;4982484;28;20050;-44
2022/04/26 09:57:37;;;;;;;39.15;24.63;;;14.70;58.80;;;;;;4975504;28;20403;-44
2022/04/26 10:00:08;;;;;;;41.45;24.58;;;14.60;59.00;;;;;;4983664;28;20059;-44
2022/04/26 10:02:38;;;;;;;39.72;25.08;;;14.50;59.40;;;;;;4983070;28;20818;-45
2022/04/26 10:05:07;;;;;;;47.78;27.85;;;14.50;59.50;;;;;;4982517;28;20051;-49
2022/04/26 10:07:41;;;;;;;48.10;29.52;;;14.50;59.90;;;;;;4983362;28;20069;-44
2022/04/26 10:10:09;;;;;;;49.30;29.73;;;14.50;59.80;;;;;;4983778;28;20442;-45
2022/04/26 10:12:37;;;;;;;52.38;29.48;;;14.50;60.10;;;;;;4982998;28;20061;-44
2022/04/26 10:15:07;;;;;;;45.30;27.15;;;14.60;60.30;;;;;;4978398;28;20065;-44
2022/04/26 10:17:34;;;;;;;43.70;28.15;;;14.60;59.70;;;;;;4982314;28;20061;-44
2022/04/26 10:20:02;;;;;;;45.60;29.02;;;14.60;59.40;;;;;;4982890;28;20521;-44
2022/04/26 10:22:59;;;;;;;45.17;28.67;;;14.60;59.10;;;;;;4979753;28;20054;-44
2022/04/26 10:25:27;;;;;;;45.58;28.35;;;14.50;58.80;;;;;;4974604;28;20050;-44
2022/04/26 10:28:23;;;;;;;46.17;28.70;;;14.50;58.50;;;;;;4971506;28;20422;-44
2022/04/26 10:30:52;;;;;;;45.97;28.42;;;14.40;58.30;;;;;;4973437;28;20050;-44
2022/04/26 10:33:38;;;;;;;44.17;28.75;;;14.30;58.60;;;;;;4971337;28;20451;-44
2022/04/26 10:36:34;;;;;;;47.58;29.50;;;14.20;58.80;;;;;;4976461;28;20129;-44
2022/04/26 10:39:31;;;;;;;45.42;28.27;;;14.10;58.70;;;;;;4982877;28;20058;-45
2022/04/26 10:42:00;;;;;;;44.35;28.02;;;14.00;58.80;;;;;;4983364;28;20062;-45
2022/04/26 10:44:48;;;;;;;47.83;28.38;;;13.90;59.20;;;;;;4974556;28;20138;-44
2022/04/26 10:47:27;;;;;;;49.60;29.23;;;13.80;59.70;;;;;;4978109;28;20050;-44
2022/04/26 10:49:55;;;;;;;45.85;28.80;;;13.80;60.10;;;;;;4981831;28;20050;-46
2022/04/26 10:52:38;;;;;;;47.20;28.13;;;13.70;60.40;;;;;;4983720;28;20062;-44
2022/04/26 10:55:14;;;;;;;41.33;26.73;;;13.70;60.20;;;;;;4982483;28;20054;-44
2022/04/26 10:57:44;;;;;;;40.80;26.20;;;13.70;60.10;;;;;;4981618;28;20062;-47
2022/04/26 11:00:15;;;;;;;46.10;27.20;;;13.60;60.50;;;;;;4981878;28;20062;-45
2022/04/26 11:02:44;;;;;;;40.25;27.58;;;13.60;61.20;;;;;;4981520;28;20410;-44
2022/04/26 11:05:13;;;;;;;47.92;29.02;;;13.50;61.70;;;;;;4981699;28;20061;-44
2022/04/26 11:07:42;;;;;;;51.38;29.90;;;13.40;62.40;;;;;;4975936;28;20503;-44
2022/04/26 11:10:12;;;;;;;49.33;29.90;;;13.40;62.80;;;;;;4975533;28;20054;-49
2022/04/26 11:12:41;;;;;;;47.88;29.67;;;13.40;63.20;;;;;;4982133;28;20054;-45
2022/04/26 11:15:10;;;;;;;51.88;29.85;;;13.30;63.50;;;;;;4982044;28;20486;-44
2022/04/26 11:17:39;;;;;;;48.13;30.63;;;13.20;63.70;;;;;;4982315;28;20077;-44
2022/04/26 11:20:12;;;;;;;54.53;32.45;;;13.20;63.90;;;;;;4981944;28;20061;-49
2022/04/26 11:22:47;;;;;;;51.90;31.55;;;13.10;64.50;;;;;;4977293;28;20058;-45
2022/04/26 11:28:06;;;;;;;51.22;30.65;;;13.10;65.20;;;;;;4975477;28;20054;-44
2022/04/26 11:30:36;;;;;;;58.83;31.70;;;13.10;65.20;;;;;;4974702;28;20074;-44
2022/04/26 11:33:06;;;;;;;55.50;33.95;;;13.10;65.10;;;;;;4980538;28;20057;-44
2022/04/26 11:35:34;;;;;;;51.38;31.75;;;13.10;65.00;;;;;;4978267;28;20054;-44
2022/04/26 11:38:08;;;;;;;48.95;29.80;;;13.10;64.80;;;;;;4981084;28;20502;-44
2022/04/26 11:40:41;;;;;;;20.63;9.27;;;13.10;65.00;;;;;;4982026;28;20057;-44
2022/04/26 11:43:13;;;;;;;17.90;7.30;;;13.10;65.00;;;;;;4980373;28;20063;-48
2022/04/26 11:45:44;;;;;;;23.40;13.77;;;13.10;63.60;;;;;;4981716;28;20062;-44
2022/04/26 11:48:13;;;;;;;19.73;13.77;;;13.10;63.60;;;;;;4980973;28;20502;-44
2022/04/26 11:50:42;;;;;;;17.83;11.77;;;13.10;63.40;;;;;;4980224;28;20050;-46
2022/04/26 11:53:11;;;;;;;20.42;12.90;;;13.10;63.50;;;;;;4979086;28;20410;-45
2022/04/26 11:55:42;;;;;;;25.70;13.43;;;13.10;63.80;;;;;;4979921;28;20061;-45
2022/04/26 11:58:15;;;;;;;18.42;11.85;;;13.20;64.30;;;;;;4981313;28;20051;-46
2022/04/26 12:00:54;;;;;;;20.00;13.18;;;13.20;64.60;;;;;;4980600;28;20418;-47
2022/04/26 12:03:23;;;;;;;23.58;14.30;;;13.20;64.70;;;;;;4979688;28;20051;-44
2022/04/26 12:05:53;;;;;;;30.48;18.65;;;13.30;64.60;;;;;;4980336;28;20491;-44
2022/04/26 12:08:22;;;;;;;44.97;25.13;;;13.30;64.70;;;;;;4980761;28;20058;-44
2022/04/26 12:10:51;;;;;;;41.47;26.25;;;13.40;64.70;;;;;;4980215;28;20499;-44
2022/04/26 12:13:30;;;;;;;41.85;25.05;;;13.40;64.70;;;;;;4979486;28;20066;-44
2022/04/26 12:16:14;;;;;;;46.88;27.27;;;13.40;64.80;;;;;;4979387;28;20065;-44
2022/04/26 12:18:53;;;;;;;44.63;26.98;;;13.50;65.00;;;;;;4980022;28;20066;-44
2022/04/26 12:21:21;;;;;;;48.42;28.45;;;13.50;65.00;;;;;;4980032;28;20069;-45
2022/04/26 12:23:49;;;;;;;48.45;29.25;;;13.60;64.80;;;;;;4980245;28;20409;-44
2022/04/26 12:26:18;;;;;;;50.90;31.38;;;13.60;64.90;;;;;;4980788;28;20401;-46
2022/04/26 12:28:51;;;;;;;55.13;33.38;;;13.60;64.90;;;;;;4979653;28;20695;-44
2022/04/26 12:31:23;;;;;;;59.80;34.40;;;13.70;64.90;;;;;;4980988;28;20066;-44
2022/04/26 12:34:12;;;;;;;59.55;35.95;;;13.70;64.90;;;;;;4975260;28;20050;-47
2022/04/26 12:36:58;;;;;;;59.45;35.88;;;13.70;64.90;;;;;;4975427;28;20057;-44
2022/04/26 12:39:30;;;;;;;58.85;35.45;;;13.80;64.80;;;;;;4973005;28;20356;-44
2022/04/26 12:41:59;;;;;;;54.25;33.97;;;13.80;64.90;;;;;;4972363;28;20062;-44
2022/04/26 12:44:27;;;;;;;49.60;29.60;;;13.80;64.90;;;;;;4981669;28;20050;-44
2022/04/26 12:52:51;;;;;;;38.63;23.05;;;13.70;64.00;;;;;;4984813;28;20062;-44
2022/04/26 12:55:25;;;;;;;39.30;23.58;;;13.70;64.40;;;;;;4976867;28;20061;-44
2022/04/26 12:57:56;;;;;;;39.80;25.05;;;13.80;64.90;;;;;;4972705;28;20054;-45
2022/04/26 13:00:25;;;;;;;43.28;25.50;;;13.80;64.90;;;;;;4966986;28;20054;-44
2022/04/26 13:02:54;;;;;;;42.53;24.98;;;13.70;65.00;;;;;;4974024;28;20057;-46
2022/04/26 13:05:22;;;;;;;48.53;28.25;;;13.80;65.10;;;;;;4982230;28;20051;-46
2022/04/26 13:07:52;;;;;;;51.17;31.80;;;13.80;65.10;;;;;;4981496;28;20077;-45
2022/04/26 13:10:21;;;;;;;63.63;34.13;;;13.80;64.90;;;;;;4982438;28;20524;-46
2022/04/26 13:12:49;;;;;;;45.47;28.50;;;13.90;64.90;;;;;;4974968;28;20069;-44
2022/04/26 13:15:23;;;;;;;47.17;28.05;;;13.90;64.70;;;;;;4983085;28;20062;-44
2022/04/26 13:17:51;;;;;;;40.45;25.60;;;14.00;64.70;;;;;;4982507;28;20498;-45
2022/04/26 13:20:18;;;;;;;39.45;25.65;;;14.00;64.50;;;;;;4983389;28;20605;-44
2022/04/26 13:22:46;;;;;;;33.72;19.58;;;14.10;64.70;;;;;;4980206;28;20054;-44
2022/04/26 13:25:13;;;;;;;24.98;16.33;;;14.10;64.50;;;;;;4983602;28;20713;-44
2022/04/26 13:27:41;;;;;;;26.10;15.65;;;14.20;64.20;;;;;;4982283;28;20058;-44
2022/04/26 13:30:11;;;;;;;24.70;14.90;;;14.30;64.00;;;;;;4982714;28;20058;-44
2022/04/26 13:32:39;;;;;;;21.95;14.23;;;14.30;63.70;;;;;;4980595;28;20074;-45
2022/04/26 13:35:08;;;;;;;19.15;12.13;;;14.40;63.60;;;;;;4981962;28;20058;-44
2022/04/26 13:37:35;;;;;;;14.82;9.43;;;14.40;63.30;;;;;;4982181;28;20050;-45
2022/04/26 13:40:04;;;;;;;14.73;8.95;;;14.50;62.00;;;;;;4983180;28;20063;-45
2022/04/26 13:42:31;;;;;;;12.45;8.35;;;14.50;61.90;;;;;;4981446;28;20387;-44
2022/04/26 13:45:00;;;;;;;13.25;8.30;;;14.50;62.10;;;;;;4982484;28;20054;-45
2022/04/26 13:47:28;;;;;;;12.05;7.38;;;14.60;60.90;;;;;;4981707;28;20054;-47
2022/04/26 13:49:57;;;;;;;13.07;7.53;;;14.60;60.60;;;;;;4981249;28;20054;-44
2022/04/26 13:52:24;;;;;;;13.93;8.70;;;14.60;60.00;;;;;;4981501;28;20062;-46
2022/04/26 13:54:52;;;;;;;12.35;8.40;;;14.60;59.90;;;;;;4981588;28;20333;-47
2022/04/26 13:57:19;;;;;;;11.65;7.90;;;14.60;59.50;;;;;;4983342;28;20069;-45
2022/04/26 13:59:47;;;;;;;10.82;7.70;;;14.50;59.20;;;;;;4982344;28;20523;-45
2022/04/26 14:02:15;;;;;;;11.98;7.47;;;14.40;59.30;;;;;;4980707;28;20425;-44
2022/04/26 14:04:44;;;;;;;9.65;6.38;;;14.30;59.60;;;;;;4979295;28;20069;-44
2022/04/26 14:07:13;;;;;;;9.30;6.45;;;14.30;59.80;;;;;;4981778;28;20054;-45
2022/04/26 14:09:40;;;;;;;9.80;6.95;;;14.10;59.80;;;;;;4973037;28;20058;-46
2022/04/26 14:12:08;;;;;;;9.90;6.55;;;14.10;60.70;;;;;;4966620;28;20490;-44
2022/04/26 14:22:54;;;;;;;12.82;6.07;;;14.00;61.30;;;;;;4976439;28;20081;-44
2022/04/26 14:25:22;;;;;;;9.95;6.03;;;14.00;61.70;;;;;;4979956;28;20058;-44
2022/04/26 14:27:51;;;;;;;9.73;6.05;;;14.10;62.10;;;;;;4982603;28;20050;-44
2022/04/26 14:30:19;;;;;;;7.82;5.60;;;14.10;62.10;;;;;;4981158;28;20395;-45
2022/04/26 14:32:46;;;;;;;7.43;5.78;;;14.20;61.60;;;;;;4980051;28;20062;-44
2022/04/26 14:35:13;;;;;;;8.50;5.95;;;14.20;61.60;;;;;;4980853;28;20054;-48
2022/04/26 14:37:41;;;;;;;8.50;5.32;;;14.30;61.60;;;;;;4982143;28;20057;-46
2022/04/26 14:40:12;;;;;;;9.00;6.20;;;14.40;62.00;;;;;;4981031;28;20063;-44
2022/04/26 14:42:45;;;;;;;11.15;5.95;;;14.40;62.70;;;;;;4979402;28;20061;-44
2022/04/26 14:45:12;;;;;;;10.15;6.10;;;14.50;63.00;;;;;;4979837;28;20081;-44
2022/04/26 14:47:41;;;;;;;9.10;5.78;;;14.60;62.70;;;;;;4980829;28;20057;-43
2022/04/26 14:50:09;;;;;;;7.97;5.68;;;14.80;62.30;;;;;;4980551;28;20085;-44
2022/04/26 14:52:37;;;;;;;9.65;6.30;;;14.90;62.10;;;;;;4974976;28;20054;-44
2022/04/26 14:55:07;;;;;;;9.25;6.38;;;15.00;62.20;;;;;;4967274;28;20062;-44
2022/04/26 14:57:37;;;;;;;9.88;6.65;;;15.20;61.90;;;;;;4972157;28;20050;-46
2022/04/26 15:00:06;;;;;;;10.13;6.72;;;15.20;60.60;;;;;;4979553;28;20050;-46
2022/04/26 15:02:38;;;;;;;10.80;6.63;;;15.30;60.10;;;;;;4980081;28;20065;-46
2022/04/26 15:05:08;;;;;;;11.35;7.35;;;15.40;59.60;;;;;;4979201;28;20054;-44
2022/04/26 15:10:22;;;;;;;12.75;7.30;;;15.50;58.60;;;;;;4981630;28;20068;-44
2022/04/26 15:18:21;;;;;;;13.25;7.88;;;15.50;56.20;;;;;;4979662;28;20061;-44
2022/04/26 15:20:50;;;;;;;11.38;7.00;;;15.50;56.00;;;;;;4980187;28;20069;-47
2022/04/26 15:23:18;;;;;;;8.45;6.13;;;15.40;56.80;;;;;;4979649;28;20054;-44
2022/04/26 15:25:50;;;;;;;8.68;6.35;;;15.40;57.40;;;;;;4995209;28;20051;-44
2022/04/26 15:28:20;;;;;;;11.25;7.13;;;15.30;58.10;;;;;;4980589;28;20055;-44
2022/04/26 15:30:48;;;;;;;9.80;6.90;;;15.30;58.30;;;;;;4980340;28;20057;-44
2022/04/26 15:33:16;;;;;;;12.85;7.35;;;15.30;58.30;;;;;;4977500;28;20065;-45
2022/04/26 15:35:43;;;;;;;12.75;7.10;;;15.30;57.40;;;;;;4980637;28;20054;-45
2022/04/26 15:38:12;;;;;;;11.13;7.78;;;15.30;57.80;;;;;;4980956;28;20065;-44
2022/04/26 15:40:41;;;;;;;14.73;8.23;;;15.20;58.20;;;;;;4980639;28;20058;-44
2022/04/26 15:43:08;;;;;;;11.80;7.85;;;15.10;58.70;;;;;;4979435;28;20065;-46
2022/04/26 15:45:39;;;;;;;11.10;8.05;;;14.90;59.50;;;;;;4980095;28;20050;-44
2022/04/26 15:48:07;;;;;;;14.27;9.23;;;14.70;59.90;;;;;;4978605;28;20047;-44
2022/04/26 15:50:35;;;;;;;12.80;8.45;;;14.60;60.90;;;;;;4982085;28;20069;-44
2022/04/26 15:53:02;;;;;;;14.20;9.57;;;14.60;61.80;;;;;;4979494;28;20058;-47
2022/04/26 15:55:30;;;;;;;11.18;8.40;;;14.50;62.60;;;;;;4980791;28;20069;-44
2022/04/26 15:57:57;;;;;;;12.68;9.20;;;14.50;63.10;;;;;;4980621;28;20419;-44
2022/04/26 16:00:26;;;;;;;15.07;9.32;;;14.40;63.70;;;;;;4978459;28;20093;-44
2022/04/26 16:02:55;;;;;;;13.25;9.85;;;14.40;63.40;;;;;;4976363;28;20085;-46
2022/04/26 16:05:23;;;;;;;11.90;9.02;;;14.30;63.50;;;;;;4978042;28;20483;-44
2022/04/26 16:07:51;;;;;;;14.02;9.10;;;14.20;63.60;;;;;;4977646;28;20058;-44
2022/04/26 16:21:22;;;;;;;12.57;8.55;;;14.00;64.80;;;;;;4988038;28;20426;-44
2022/04/26 16:23:50;;;;;;;14.23;9.57;;;14.00;64.40;;;;;;4976042;28;20065;-44
2022/04/26 16:26:19;;;;;;;12.05;9.18;;;14.00;64.10;;;;;;4971227;28;20077;-44
2022/04/26 16:28:47;;;;;;;14.65;9.02;;;14.00;63.90;;;;;;4972663;28;20638;-44
2022/04/26 16:31:15;;;;;;;16.33;8.82;;;14.00;63.80;;;;;;4973449;28;20061;-44
2022/04/26 16:33:44;;;;;;;11.38;7.70;;;14.00;63.30;;;;;;4972587;28;20447;-44
2022/04/26 16:36:11;;;;;;;13.68;8.48;;;13.90;63.30;;;;;;4970566;28;20058;-44
2022/04/26 16:38:39;;;;;;;10.43;7.50;;;14.00;62.80;;;;;;4975888;28;20058;-44
2022/04/26 16:41:07;;;;;;;9.65;7.45;;;13.90;62.50;;;;;;4978404;28;20058;-45
2022/04/26 16:43:35;;;;;;;11.40;6.90;;;13.90;63.00;;;;;;4965828;28;21187;-44
2022/04/26 16:46:02;;;;;;;11.73;7.68;;;13.90;62.90;;;;;;4967841;28;20058;-44
2022/04/26 16:48:30;;;;;;;12.52;7.68;;;13.90;62.50;;;;;;4978479;28;20042;-47
2022/04/26 16:50:59;;;;;;;11.25;7.65;;;13.90;62.30;;;;;;4970479;28;20050;-44
2022/04/26 16:53:26;;;;;;;14.10;7.22;;;13.90;62.20;;;;;;4968525;28;20678;-44
2022/04/26 16:55:55;;;;;;;10.20;7.13;;;13.80;62.10;;;;;;4978018;28;20498;-44
2022/04/26 16:58:22;;;;;;;9.85;7.20;;;13.80;62.10;;;;;;4981482;28;20046;-44
2022/04/26 17:00:50;;;;;;;10.77;6.85;;;13.80;62.00;;;;;;4983512;28;20057;-43
2022/04/26 17:03:18;;;;;;;11.88;8.07;;;13.80;62.10;;;;;;4980139;28;20066;-43
2022/04/26 17:05:47;;;;;;;10.45;7.32;;;13.80;62.00;;;;;;4982539;28;20494;-44